Latest Weather Observations for Ivanhoe Airport

IDN60801

Issued at 10:33 am EST Sunday 24 July 2016 (issued every 30 minutes, with the page automatically refreshed every 10 minutes)

About weather observations | Map of weather stations | Latest weather observations for NSW | Other Formats
Station Details ID: 049000 Name: IVANHOE AERODROME AWS Lat: -32.88 Lon: 144.31 Height: 100.0 m
Data from the previous 72 hours. | See also: Recent months at Ivanhoe Airport
Date/Time
EST
Temp
°C
App
Temp
°C
Dew
Point
°C
Rel
Hum
%
Delta-T
°C
Wind Press
QNH
hPa
Press
MSL
hPa
Rain since
9am
mm
Dir  Spd
km/h
Gust
km/h
Spd
kts
Gust
kts
24/10:30am 11.2 7.1 7.9 80 1.6 NNW 19 24 10 13 1014.7 1014.8 0.0
24/10:00am 10.3 6.5 7.5 83 1.3 NNW 17 24 9 13 1015.1 1015.2 0.0
24/09:30am 9.9 6.5 7.7 86 1.1 N 15 20 8 11 1014.8 1014.9 0.0
24/09:00am 8.9 6.0 8.0 94 0.4 N 13 17 7 9 1014.7 1014.8 0.2
24/08:30am 8.3 5.4 8.2 99 0.0 NNE 13 17 7 9 1014.6 1014.7 0.2
24/08:00am 7.4 4.7 7.3 99 0.0 NE 11 13 6 7 1014.7 1014.8 0.2
24/07:30am 6.8 4.3 6.7 99 0.0 NE 9 11 5 6 1014.7 1014.8 0.2
24/07:00am 6.5 4.3 6.4 99 0.0 ENE 7 9 4 5 1014.6 1014.7 0.2
24/06:30am 7.0 5.0 6.9 99 0.0 NE 7 7 4 4 1014.9 1015.0 0.2
24/06:00am 7.2 5.8 7.1 99 0.0 N 4 9 2 5 1014.7 1014.8 0.0
24/05:30am 7.2 5.2 7.1 99 0.0 N 7 9 4 5 1014.7 1014.8 0.0
24/05:00am 6.9 5.8 6.8 99 0.0 S 2 7 1 4 1014.5 1014.6 0.0
24/04:30am 6.9 5.0 6.8 99 0.0 NW 6 7 3 4 1014.7 1014.8 0.0
24/04:00am 6.7 4.5 6.4 98 0.1 NW 7 9 4 5 1014.7 1014.8 0.0
24/03:30am 6.1 3.0 5.7 97 0.2 N 11 13 6 7 1014.8 1014.9 0.0
24/03:00am 6.4 3.8 6.0 97 0.2 N 9 15 5 8 1015.2 1015.3 0.0
24/02:30am 6.0 3.5 4.8 92 0.5 N 7 9 4 5 1015.0 1015.1 0.0
24/02:00am 6.7 4.5 6.3 97 0.2 N 7 11 4 6 1015.2 1015.3 0.0
24/01:30am 5.8 3.0 5.1 95 0.3 N 9 11 5 6 1015.5 1015.6 0.0
24/01:00am 6.1 3.8 5.5 96 0.3 NNW 7 9 4 5 1015.9 1016.1 0.0
24/12:30am 5.7 3.4 4.7 93 0.4 NNW 6 7 3 4 1015.8 1016.0 0.0
24/12:00am 6.2 3.7 5.0 92 0.5 NNW 7 9 4 5 1016.1 1016.3 0.0
 
Date/Time
EST
Temp
°C
App
Temp
°C
Dew
Point
°C
Rel
Hum
%
Delta-T
°C
Wind Press
QNH
hPa
Press
MSL
hPa
Rain since
9am
mm
Dir  Spd
km/h
Gust
km/h
Spd
kts
Gust
kts
23/11:30pm 6.3 4.0 4.9 91 0.6 NNW 6 9 3 5 1016.5 1016.6 0.0
23/11:00pm 6.9 4.5 5.2 89 0.8 NNW 7 9 4 5 1016.9 1017.0 0.0
23/10:30pm 7.3 4.9 5.3 87 0.9 NNW 7 9 4 5 1016.8 1016.9 0.0
23/10:00pm 7.4 4.7 5.4 87 0.9 NNW 9 11 5 6 1016.6 1016.7 0.0
23/09:30pm 7.5 4.7 5.3 86 1.0 NW 9 11 5 6 1016.6 1016.7 0.0
23/09:00pm 7.6 4.9 5.4 86 1.0 NNW 9 11 5 6 1016.5 1016.6 0.0
23/08:30pm 7.3 4.4 4.6 83 1.2 NW 9 11 5 6 1016.6 1016.7 0.0
23/08:00pm 8.0 5.5 4.9 81 1.4 WNW 7 9 4 5 1016.0 1016.2 0.0
23/07:30pm 8.1 5.3 5.0 81 1.4 WNW 9 11 5 6 1016.0 1016.2 0.0
23/07:00pm 8.2 6.0 5.1 81 1.4 WSW 6 7 3 4 1015.6 1015.7 0.0
23/06:30pm 9.0 6.8 5.2 77 1.7 W 6 7 3 4 1015.1 1015.2 0.0
23/06:00pm 10.0 7.3 5.6 74 2.0 W 9 11 5 6 1015.4 1015.5 0.0
23/05:30pm 11.3 8.6 5.8 69 2.6 W 9 13 5 7 1015.2 1015.3 0.0
23/05:00pm 12.1 9.9 6.2 67 2.8 W 7 11 4 6 1015.1 1015.2 0.0
23/04:30pm 12.5 9.1 5.7 63 3.2 W 13 17 7 9 1014.7 1014.8 0.0
23/04:00pm 13.5 10.1 5.9 60 3.6 W 13 19 7 10 1014.6 1014.7 0.0
23/03:30pm 12.6 8.7 5.5 62 3.3 WSW 15 20 8 11 1014.4 1014.5 0.0
23/03:00pm 13.9 9.7 5.8 58 3.9 W 17 26 9 14 1014.1 1014.2 0.0
23/02:30pm 13.9 10.0 7.0 63 3.4 W 17 28 9 15 1014.0 1014.1 0.0
23/02:00pm 12.9 8.8 6.0 63 3.3 W 17 26 9 14 1013.9 1014.0 0.0
23/01:30pm 13.1 8.0 6.2 63 3.3 SW 22 28 12 15 1013.9 1014.0 0.0
23/01:00pm 11.9 7.6 6.8 71 2.4 SW 19 28 10 15 1014.2 1014.3 0.0
23/12:30pm 12.8 8.1 6.2 64 3.1 WSW 20 32 11 17 1014.2 1014.3 0.0
23/12:00pm 12.3 6.9 6.4 67 2.8 WSW 24 33 13 18 1014.3 1014.4 0.0
23/11:30am 12.6 7.6 6.4 66 3.0 WSW 22 32 12 17 1014.2 1014.3 0.0
23/11:00am 12.0 7.4 6.7 70 2.5 WSW 20 30 11 16 1014.3 1014.4 0.0
23/10:30am 11.8 6.7 6.1 68 2.7 W 22 35 12 19 1014.0 1014.1 0.0
23/10:00am 11.5 5.3 6.0 69 2.6 WSW 28 39 15 21 1013.7 1013.8 0.0
23/09:30am 11.4 5.9 5.7 68 2.7 W 24 35 13 19 1013.1 1013.2 0.0
23/09:00am 10.8 5.2 5.3 69 2.5 W 24 39 13 21 1012.6 1012.7 0.0
23/08:30am 10.2 4.9 5.2 71 2.3 W 22 35 12 19 1012.1 1012.2 0.0
23/08:00am 9.6 3.9 4.8 72 2.2 W 24 35 13 19 1011.4 1011.5 0.0
23/07:30am 9.4 4.0 4.6 72 2.1 W 22 32 12 17 1011.2 1011.3 0.0
23/07:00am 9.8 3.7 4.8 71 2.3 WNW 26 44 14 24 1010.8 1010.9 0.0
23/06:30am 9.1 4.1 4.7 74 2.0 WNW 20 28 11 15 1010.3 1010.4 0.0
23/06:00am 9.2 4.2 4.4 72 2.1 WNW 20 26 11 14 1009.7 1009.8 0.0
23/05:30am 9.9 4.1 4.5 69 2.4 WNW 24 35 13 19 1009.3 1009.4 0.0
23/05:00am 10.2 4.7 3.9 65 2.8 WNW 22 35 12 19 1009.2 1009.3 0.0
23/04:30am 10.8 4.5 3.6 61 3.2 W 26 39 14 21 1008.7 1008.8 0.0
23/04:00am 10.8 4.5 3.8 62 3.1 WNW 26 43 14 23 1008.5 1008.6 0.0
23/03:30am 11.1 5.2 3.9 61 3.2 W 24 39 13 21 1008.4 1008.5 0.0
23/03:00am 11.7 5.9 4.2 60 3.4 W 24 41 13 22 1008.3 1008.4 0.0
23/02:30am 11.9 6.1 4.6 61 3.3 WNW 24 37 13 20 1007.9 1008.0 0.0
23/02:00am 12.8 5.9 4.5 57 3.8 W 30 44 16 24 1007.8 1007.9 0.0
23/01:41am 13.2 5.9 4.4 55 4.0 W 32 50 17 27 1007.5 1007.6 0.0
23/01:30am 13.2 8.0 5.4 59 3.7 WNW 22 33 12 18 1007.3 1007.3 0.0
23/01:00am 13.8 7.4 5.2 56 4.1 W 28 43 15 23 1007.1 1007.1 0.0
23/12:30am 13.4 8.9 7.0 65 3.1 W 20 28 11 15 1007.0 1007.0 0.0
23/12:00am 14.6 9.1 5.7 55 4.3 W 24 39 13 21 1006.6 1006.6 0.0
 
Date/Time
EST
Temp
°C
App
Temp
°C
Dew
Point
°C
Rel
Hum
%
Delta-T
°C
Wind Press
QNH
hPa
Press
MSL
hPa
Rain since
9am
mm
Dir  Spd
km/h
Gust
km/h
Spd
kts
Gust
kts
22/11:45pm 15.1 8.5 5.9 54 4.4 WNW 30 48 16 26 1006.3 1006.3 0.0
22/11:30pm 15.1 8.1 5.9 54 4.4 WNW 32 41 17 22 1006.1 1006.1 0.0
22/11:00pm 15.5 7.9 6.0 53 4.6 WNW 35 63 19 34 1005.7 1005.8 0.0
22/10:42pm 15.5 8.9 6.2 54 4.5 WNW 30 50 16 27 1005.6 1005.7 0.0
22/10:30pm 15.6 8.7 6.6 55 4.4 WNW 32 46 17 25 1005.5 1005.6 0.0
22/10:00pm 15.7 9.6 6.7 55 4.4 WNW 28 43 15 23 1005.5 1005.6 0.0
22/09:30pm 16.4 10.3 6.5 52 4.9 WNW 28 41 15 22 1005.3 1005.4 0.0
22/09:00pm 17.0 11.0 7.1 52 5.0 WNW 28 48 15 26 1005.0 1005.1 0.0
22/08:30pm 17.3 11.5 7.9 54 4.8 W 28 48 15 26 1004.8 1004.9 0.0
22/08:05pm 18.2 12.2 8.7 54 4.9 W 30 50 16 27 1004.3 1004.4 0.0
22/08:00pm 18.0 13.0 9.6 58 4.5 W 26 37 14 20 1004.3 1004.4 0.0
22/07:35pm 18.6 13.5 10.7 60 4.3 W 28 48 15 26 1003.7 1003.8 0.0
22/07:30pm 18.3 13.3 10.9 62 4.0 W 28 39 15 21 1003.6 1003.7 0.0
22/07:17pm 18.8 13.1 11.1 61 4.2 WNW 32 52 17 28 1003.4 1003.5 0.0
22/07:00pm 18.9 13.2 11.0 60 4.3 WNW 32 46 17 25 1003.2 1003.3 0.0
22/06:30pm 19.6 13.3 10.9 57 4.8 WNW 35 48 19 26 1002.7 1002.8 0.0
22/06:00pm 19.5 14.6 12.5 64 4.0 WNW 30 41 16 22 1002.7 1002.8 0.0
22/05:30pm 19.6 15.4 13.5 68 3.5 NW 28 37 15 20 1002.4 1002.5 0.0
22/05:00pm 19.7 16.7 14.7 73 2.9 WNW 24 35 13 19 1002.5 1002.6 0.0
22/04:30pm 20.4 16.9 15.6 74 2.9 WNW 28 39 15 21 1002.5 1002.6 0.0
22/04:00pm 21.0 18.8 16.0 73 3.0 NW 22 32 12 17 1002.1 1002.2 0.0
22/03:30pm 21.5 18.2 16.0 71 3.3 NW 28 41 15 22 1002.3 1002.4 0.0
22/03:01pm 22.1 18.7 15.9 68 3.7 NW 28 46 15 25 1002.2 1002.3 0.0
22/03:00pm 22.2 19.2 15.8 67 3.9 NW 26 46 14 25 1002.2 1002.3 0.0
22/02:30pm 22.3 18.7 16.3 69 3.7 WNW 30 43 16 23 1002.6 1002.7 0.0
22/02:18pm 22.6 19.4 16.4 68 3.8 NW 28 46 15 25 1002.5 1002.6 0.0
22/02:00pm 22.6 20.3 16.6 69 3.7 NW 24 33 13 18 1002.8 1002.9 0.0
22/01:30pm 23.0 19.0 16.1 65 4.2 NW 32 43 17 23 1002.8 1002.9 0.0
22/01:15pm 23.2 19.2 16.3 65 4.2 NW 32 52 17 28 1003.2 1003.3 0.0
22/01:00pm 23.3 19.0 15.9 63 4.5 NW 33 48 18 26 1003.3 1003.4 0.0
22/12:30pm 23.7 19.1 17.0 66 4.1 NW 37 56 20 30 1004.0 1004.1 0.0
22/12:00pm 23.8 20.2 17.3 67 4.1 NNW 32 50 17 27 1004.8 1004.9 0.0
22/11:38am 23.3 19.7 17.1 68 3.8 NNW 32 50 17 27 1005.1 1005.2 0.0
22/11:30am 22.9 20.0 17.1 70 3.6 NNW 28 41 15 22 1005.4 1005.5 0.0
22/11:00am 22.1 19.4 17.5 75 2.9 NNW 28 46 15 25 1005.9 1006.0 0.0
22/10:53am 22.0 19.2 17.4 75 2.8 NNW 28 46 15 25 1006.1 1006.1 0.0
22/10:30am 21.2 17.9 17.0 77 2.6 NNW 30 43 16 23 1006.4 1006.4 0.0
22/10:00am 20.7 18.2 17.1 80 2.2 NNW 26 39 14 21 1006.4 1006.4 0.0
22/09:30am 20.0 17.8 17.0 83 1.8 NNW 24 37 13 20 1006.9 1006.9 0.0
22/09:00am 19.4 16.5 17.0 86 1.5 NNW 28 41 15 22 1006.9 1006.9 0.2
22/08:30am 19.0 17.0 17.3 90 1.0 NNW 24 37 13 20 1007.1 1007.1 0.2
22/08:00am 17.6 16.0 17.4 99 0.1 N 22 30 12 16 1007.2 1007.2 0.2
22/07:30am 17.1 15.7 17.1 100 0.0 N 20 30 11 16 1007.6 1007.7 0.2
22/07:00am 17.3 16.0 17.3 100 0.0 N 20 30 11 16 1007.8 1007.9 0.2
22/06:30am 17.3 16.0 17.3 100 0.0 N 20 30 11 16 1007.8 1007.9 0.2
22/06:00am 17.7 16.2 17.7 100 0.0 N 22 33 12 18 1008.0 1008.1 0.2
22/05:30am 17.8 16.3 17.8 100 0.0 N 22 32 12 17 1008.3 1008.4 0.2
22/05:00am 17.9 16.1 17.9 100 0.0 N 24 39 13 21 1008.5 1008.6 0.2
22/04:30am 17.8 16.3 17.8 100 0.0 N 22 32 12 17 1008.8 1008.9 0.2
22/04:00am 17.5 16.3 17.5 100 0.0 N 20 32 11 17 1009.3 1009.4 0.2
22/03:30am 17.0 15.2 17.0 100 0.0 N 22 33 12 18 1009.7 1009.8 0.2
22/03:00am 16.8 14.9 16.8 100 0.0 N 22 33 12 18 1010.1 1010.2 0.2
22/02:30am 16.1 14.5 16.1 100 0.0 N 19 28 10 15 1010.4 1010.5 0.2
22/02:00am 15.9 14.3 15.9 100 0.0 N 19 26 10 14 1010.9 1011.0 0.2
22/01:30am 16.1 14.9 16.1 100 0.0 N 17 22 9 12 1011.3 1011.4 0.2
22/01:00am 15.5 14.5 15.5 100 0.0 N 15 20 8 11 1011.6 1011.7 0.0
22/12:30am 15.2 14.1 15.2 100 0.0 N 15 19 8 10 1012.1 1012.2 0.0
22/12:00am 15.5 14.5 15.5 100 0.0 N 15 20 8 11 1012.3 1012.4 0.0
 
Date/Time
EST
Temp
°C
App
Temp
°C
Dew
Point
°C
Rel
Hum
%
Delta-T
°C
Wind Press
QNH
hPa
Press
MSL
hPa
Rain since
9am
mm
Dir  Spd
km/h
Gust
km/h
Spd
kts
Gust
kts
21/11:30pm 15.5 14.5 15.5 100 0.0 N 15 20 8 11 1012.4 1012.5 0.0
21/11:00pm 15.2 13.7 15.2 100 0.0 N 17 19 9 10 1012.6 1012.7 0.0
21/10:30pm 15.1 14.3 15.1 100 0.0 N 13 15 7 8 1013.3 1013.4 0.0
21/10:00pm 14.6 14.0 14.6 100 0.0 N 11 15 6 8 1013.4 1013.5 0.0
21/09:30pm 14.2 14.2 14.2 100 0.0 NNE 7 11 4 6 1013.6 1013.7 0.0
21/09:00pm 13.5 12.9 13.5 100 0.0 NNE 9 11 5 6 1013.7 1013.8 0.0
21/08:30pm 14.1 14.1 14.1 100 0.0 NNE 7 9 4 5 1013.8 1013.9 0.0
21/08:00pm 13.7 13.2 13.7 100 0.0 NE 9 11 5 6 1013.5 1013.6 0.0
21/07:30pm 14.2 14.1 14.0 99 0.1 ENE 7 9 4 5 1013.9 1014.0 0.0
21/07:00pm 14.4 14.4 14.2 99 0.1 ENE 7 11 4 6 1014.0 1014.1 0.0
21/06:30pm 15.5 17.2 15.3 99 0.1 CALM 0 0 0 0 1014.3 1014.4 0.0
21/06:00pm 16.2 17.9 15.1 93 0.6 CALM 0 0 0 0 1014.7 1014.8 0.0
21/05:30pm 17.7 18.4 15.5 87 1.3 W 6 7 3 4 1014.3 1014.4 0.0
21/05:00pm 18.6 19.4 15.8 84 1.7 W 6 9 3 5 1014.0 1014.1 0.0
21/04:30pm 19.0 19.7 16.0 83 1.8 WNW 7 13 4 7 1014.1 1014.2 0.0
21/04:00pm 19.5 19.5 16.3 82 1.9 WNW 11 15 6 8 1014.4 1014.5 0.0
21/03:30pm 19.6 20.0 16.4 82 1.9 WNW 9 11 5 6 1014.5 1014.6 0.0
21/03:00pm 19.6 19.6 16.3 81 2.0 NW 11 17 6 9 1014.7 1014.8 0.0
21/02:30pm 19.0 19.4 16.4 85 1.6 WNW 9 15 5 8 1015.0 1015.1 0.0
21/02:00pm 19.0 19.5 16.6 86 1.4 WNW 9 17 5 9 1015.3 1015.4 0.0
21/01:30pm 18.6 18.2 16.2 86 1.4 NW 13 19 7 10 1015.7 1015.8 0.0
21/01:00pm 18.5 18.6 16.5 88 1.2 NNW 11 22 6 12 1016.1 1016.3 0.0
21/12:30pm 17.4 17.3 15.9 91 0.9 NNW 11 17 6 9 1016.9 1017.0 0.0
21/12:00pm 16.9 15.7 16.1 95 0.5 NNW 17 22 9 12 1017.3 1017.4 0.0
21/11:30am 17.0 16.9 17.0 100 0.0 N 13 20 7 11 1017.5 1017.6 0.0
21/11:00am 16.4 15.3 16.4 100 0.0 N 17 20 9 11 1017.7 1017.8 0.0

Other Formats:

Comma delimited format used in spreadsheet applications
http://www.bom.gov.au/fwo/IDN60801/IDN60801.95697.axf

JavaScript Object Notation format (JSON) in row-major order
http://www.bom.gov.au/fwo/IDN60801/IDN60801.95697.json